Time;durP1;ratioP1;P1;durP2;ratioP2;P2;SDS_P1;SDS_P2;PMS_P1;PMS_P2;Temp;Humidity;BMP_temperature;BMP_pressure;BME280_temperature;BME280_humidity;BME280_pressure;Samples;Min_cycle;Max_cycle;Signal;HPM_P1;HPM_P2
2023/10/11 00:02:09;;;;;;;4.40;1.80;;;15.40;99.90;;;;;;5075297;28;21051;-82
2023/10/11 00:04:37;;;;;;;3.97;1.53;;;15.40;99.90;;;;;;5074942;28;20956;-82
2023/10/11 00:07:04;;;;;;;4.03;2.10;;;15.30;99.90;;;;;;5075213;28;20449;-82
2023/10/11 00:09:35;;;;;;;6.00;1.90;;;15.40;99.90;;;;;;5075208;28;20443;-81
2023/10/11 00:12:04;;;;;;;2.73;1.60;;;15.20;99.90;;;;;;5074713;28;20465;-81
2023/10/11 00:14:31;;;;;;;6.07;1.90;;;15.20;99.90;;;;;;5075083;28;20445;-82
2023/10/11 00:16:58;;;;;;;4.40;1.80;;;15.20;99.90;;;;;;5075045;28;20455;-82
2023/10/11 00:19:29;;;;;;;4.17;2.33;;;15.20;99.90;;;;;;5074590;28;20908;-81
2023/10/11 00:21:57;;;;;;;2.10;1.67;;;15.20;99.90;;;;;;5075160;28;20433;-81
2023/10/11 00:24:24;;;;;;;11.63;2.07;;;15.60;99.90;;;;;;5074693;28;20469;-81
2023/10/11 00:26:51;;;;;;;1.47;1.37;;;15.20;99.90;;;;;;5074845;28;20503;-81
2023/10/11 00:29:18;;;;;;;1.53;1.20;;;15.20;99.90;;;;;;5074558;28;20992;-82
2023/10/11 00:31:46;;;;;;;5.53;2.00;;;15.20;99.90;;;;;;5074900;28;20445;-81
2023/10/11 00:34:13;;;;;;;5.77;1.90;;;15.10;99.90;;;;;;5074503;28;20881;-81
2023/10/11 00:36:42;;;;;;;5.73;1.20;;;15.20;99.90;;;;;;5074318;28;20445;-82
2023/10/11 00:39:16;;;;;;;2.30;1.67;;;15.30;99.90;;;;;;5074507;28;20506;-82
2023/10/11 00:41:46;;;;;;;3.43;1.63;;;15.40;99.90;;;;;;5074536;28;20460;-82
2023/10/11 00:44:16;;;;;;;7.17;2.10;;;15.40;99.90;;;;;;5074132;28;20522;-82
2023/10/11 00:46:50;;;;;;;10.40;2.23;;;15.40;99.90;;;;;;5074166;28;20950;-82
2023/10/11 00:49:18;;;;;;;2.77;1.73;;;15.40;99.90;;;;;;5074222;28;20524;-82
2023/10/11 00:51:47;;;;;;;2.47;2.20;;;15.40;99.90;;;;;;5074283;28;20879;-82
2023/10/11 00:54:17;;;;;;;1.50;1.27;;;15.50;99.90;;;;;;5073936;28;21050;-82
2023/10/11 00:56:44;;;;;;;2.30;1.13;;;15.50;99.90;;;;;;5074231;28;20527;-82
2023/10/11 00:59:14;;;;;;;3.30;1.57;;;15.40;99.90;;;;;;5074202;28;20526;-82
2023/10/11 01:01:43;;;;;;;2.83;1.40;;;15.40;99.90;;;;;;5074200;28;20440;-82
2023/10/11 01:04:10;;;;;;;4.80;1.80;;;15.40;99.90;;;;;;5073747;28;20973;-81
2023/10/11 01:06:37;;;;;;;9.17;2.27;;;15.40;99.90;;;;;;5073713;28;21019;-82
2023/10/11 01:09:15;;;;;;;4.30;1.30;;;15.40;99.90;;;;;;5073679;28;20825;-82
2023/10/11 01:11:43;;;;;;;4.30;2.23;;;15.40;99.90;;;;;;5073949;28;20429;-81
2023/10/11 01:14:11;;;;;;;1.63;1.30;;;15.40;99.90;;;;;;5073432;28;20526;-81
2023/10/11 01:16:38;;;;;;;2.50;2.20;;;15.40;99.90;;;;;;5073851;28;20499;-82
2023/10/11 01:19:11;;;;;;;5.97;1.20;;;15.30;99.90;;;;;;5073611;28;20436;-82
2023/10/11 01:21:39;;;;;;;4.90;1.63;;;15.40;99.90;;;;;;5073804;28;20437;-81
2023/10/11 01:24:08;;;;;;;2.83;1.53;;;15.40;99.90;;;;;;5073578;28;20457;-82
2023/10/11 01:26:35;;;;;;;5.07;1.50;;;15.40;99.90;;;;;;5073390;28;20942;-82
2023/10/11 01:29:02;;;;;;;3.70;1.93;;;15.50;99.90;;;;;;5073643;28;20449;-81
2023/10/11 01:31:33;;;;;;;2.00;1.27;;;15.50;99.90;;;;;;5073914;28;20445;-81
2023/10/11 01:34:00;;;;;;;2.90;1.40;;;15.50;99.90;;;;;;5073450;28;20484;-82
2023/10/11 01:36:27;;;;;;;3.20;1.20;;;15.40;99.90;;;;;;5073529;28;20449;-82
2023/10/11 01:39:00;;;;;;;3.27;1.73;;;15.40;99.90;;;;;;5073521;28;20452;-82
2023/10/11 01:41:27;;;;;;;4.60;1.33;;;15.40;99.90;;;;;;5073538;28;20429;-82
2023/10/11 01:43:55;;;;;;;1.77;1.37;;;15.40;99.90;;;;;;5073647;28;20465;-82
2023/10/11 01:46:24;;;;;;;1.50;1.40;;;15.40;99.90;;;;;;5073162;28;20965;-81
2023/10/11 01:48:52;;;;;;;7.10;1.60;;;15.30;99.90;;;;;;5073371;28;20448;-81
2023/10/11 01:51:25;;;;;;;12.00;1.87;;;15.20;99.90;;;;;;5073082;28;20511;-81
2023/10/11 01:53:52;;;;;;;4.27;1.60;;;15.30;99.90;;;;;;5073177;28;20491;-82
2023/10/11 01:56:23;;;;;;;8.30;1.30;;;15.30;99.90;;;;;;5073374;28;20444;-81
2023/10/11 01:58:50;;;;;;;3.03;1.23;;;15.30;99.90;;;;;;5072572;28;20839;-81
2023/10/11 02:01:21;;;;;;;1.47;1.37;;;15.30;99.90;;;;;;5073294;28;20451;-81
2023/10/11 02:03:51;;;;;;;6.50;2.00;;;15.40;99.90;;;;;;5072887;28;20471;-82
2023/10/11 02:06:19;;;;;;;4.70;1.40;;;15.30;99.90;;;;;;5073232;28;20429;-82
2023/10/11 02:08:46;;;;;;;5.87;1.50;;;15.30;99.90;;;;;;5072874;28;20826;-82
2023/10/11 02:11:14;;;;;;;3.37;1.43;;;15.40;99.90;;;;;;5073167;28;20456;-82
2023/10/11 02:13:42;;;;;;;5.60;1.43;;;15.50;99.90;;;;;;5073026;28;20516;-82
2023/10/11 02:16:11;;;;;;;3.87;1.93;;;15.30;99.90;;;;;;5072814;28;20946;-82
2023/10/11 02:18:38;;;;;;;2.20;1.60;;;15.40;99.90;;;;;;5073315;28;20445;-82
2023/10/11 02:21:06;;;;;;;3.07;1.60;;;15.30;99.90;;;;;;5073070;28;20445;-81
2023/10/11 02:23:37;;;;;;;1.83;1.17;;;15.40;99.90;;;;;;5072681;28;21068;-81
2023/10/11 02:26:04;;;;;;;5.33;2.07;;;15.30;99.90;;;;;;5073078;28;20439;-82
2023/10/11 02:28:31;;;;;;;2.83;1.43;;;15.20;99.90;;;;;;5072993;28;20547;-81
2023/10/11 02:31:00;;;;;;;4.50;1.90;;;15.20;99.90;;;;;;5072657;28;20506;-82
2023/10/11 02:33:31;;;;;;;5.90;2.30;;;15.20;99.90;;;;;;5072777;28;20495;-81
2023/10/11 02:35:58;;;;;;;3.13;1.50;;;15.10;99.90;;;;;;5072692;28;20524;-81
2023/10/11 02:38:25;;;;;;;3.37;1.50;;;15.00;99.90;;;;;;5072601;28;20963;-82
2023/10/11 02:40:56;;;;;;;5.27;1.97;;;15.00;99.90;;;;;;5072911;28;20448;-81
2023/10/11 02:43:24;;;;;;;3.17;1.63;;;14.90;99.90;;;;;;5072574;28;20452;-81
2023/10/11 02:45:51;;;;;;;4.57;1.53;;;14.90;99.90;;;;;;5072853;28;20453;-82
2023/10/11 02:48:20;;;;;;;3.70;1.70;;;14.80;99.90;;;;;;5072819;28;20445;-82
2023/10/11 02:50:47;;;;;;;2.03;1.93;;;14.80;99.90;;;;;;5072350;28;20542;-82
2023/10/11 02:53:22;;;;;;;1.20;1.10;;;14.80;99.90;;;;;;5072617;28;20493;-82
2023/10/11 02:55:57;;;;;;;6.57;1.63;;;14.70;99.90;;;;;;5072808;28;20428;-82
2023/10/11 02:58:29;;;;;;;5.43;1.80;;;14.70;99.90;;;;;;5073006;28;20905;-82
2023/10/11 03:01:00;;;;;;;5.90;1.83;;;14.60;99.90;;;;;;5072793;28;20452;-82
2023/10/11 03:03:28;;;;;;;3.63;1.77;;;14.50;99.90;;;;;;5072898;28;20461;-82
2023/10/11 03:05:56;;;;;;;3.37;1.40;;;14.50;99.90;;;;;;5072703;28;20444;-82
2023/10/11 03:08:26;;;;;;;3.80;1.97;;;14.40;99.90;;;;;;5072652;28;20494;-81
2023/10/11 03:10:54;;;;;;;5.50;1.50;;;14.40;99.90;;;;;;5074206;28;20451;-82
2023/10/11 03:13:24;;;;;;;3.97;1.70;;;14.30;99.90;;;;;;5076534;28;20846;-82
2023/10/11 03:15:54;;;;;;;4.97;1.80;;;14.20;99.90;;;;;;5076018;28;20441;-82
2023/10/11 03:18:26;;;;;;;1.50;1.23;;;14.20;99.90;;;;;;5076030;28;20950;-82
2023/10/11 03:21:07;;;;;;;2.37;1.43;;;14.20;99.90;;;;;;5076370;28;20910;-82
2023/10/11 03:23:43;;;;;;;6.93;1.87;;;14.20;99.90;;;;;;5075699;28;20548;-82
2023/10/11 03:26:16;;;;;;;11.60;1.80;;;14.10;99.90;;;;;;5076010;28;20433;-82
2023/10/11 03:28:43;;;;;;;6.27;1.50;;;14.20;99.90;;;;;;5075683;28;20807;-82
2023/10/11 03:31:12;;;;;;;1.53;1.40;;;14.20;99.90;;;;;;5075901;28;20451;-82
2023/10/11 03:33:40;;;;;;;3.70;1.60;;;14.30;99.90;;;;;;5075645;28;20492;-82
2023/10/11 03:36:18;;;;;;;3.37;1.37;;;14.40;99.90;;;;;;5075951;28;20495;-82
2023/10/11 03:38:51;;;;;;;11.30;1.80;;;14.40;99.90;;;;;;5075833;28;20433;-82
2023/10/11 03:41:25;;;;;;;2.70;1.40;;;14.40;99.90;;;;;;5075764;28;20429;-82
2023/10/11 03:43:54;;;;;;;1.50;1.40;;;14.50;99.90;;;;;;5076078;28;20500;-82
2023/10/11 03:46:25;;;;;;;8.03;2.80;;;14.50;99.90;;;;;;5075659;28;20527;-82
2023/10/11 03:48:53;;;;;;;1.70;1.40;;;14.50;99.90;;;;;;5075760;28;20440;-82
2023/10/11 03:51:22;;;;;;;3.53;1.70;;;14.50;99.90;;;;;;5075101;28;20473;-82
2023/10/11 03:53:52;;;;;;;1.67;1.30;;;14.50;99.90;;;;;;5075595;28;20489;-82
2023/10/11 03:56:18;;;;;;;1.13;1.03;;;14.50;99.90;;;;;;5075463;28;20452;-82
2023/10/11 03:58:45;;;;;;;2.47;1.57;;;14.50;99.90;;;;;;5075409;28;20444;-82
2023/10/11 04:01:13;;;;;;;2.23;1.30;;;14.50;99.90;;;;;;5075357;28;20444;-82
2023/10/11 04:03:41;;;;;;;4.00;1.60;;;14.60;99.90;;;;;;5075395;28;20471;-82
2023/10/11 04:06:14;;;;;;;3.90;2.10;;;14.50;99.90;;;;;;5075492;28;20437;-82
2023/10/11 04:08:43;;;;;;;17.17;1.60;;;14.50;99.90;;;;;;5075023;28;20425;-82
2023/10/11 04:11:18;;;;;;;6.87;1.77;;;14.60;99.90;;;;;;5075147;28;20518;-81
2023/10/11 04:13:49;;;;;;;2.07;1.53;;;14.70;99.90;;;;;;5075038;28;20486;-82
2023/10/11 04:16:17;;;;;;;2.53;1.60;;;15.00;99.90;;;;;;5075077;28;20452;-82
2023/10/11 04:18:44;;;;;;;4.33;1.57;;;14.70;99.90;;;;;;5074682;28;20507;-82
2023/10/11 04:21:25;;;;;;;2.60;1.20;;;14.70;99.90;;;;;;5074662;28;20813;-82
2023/10/11 04:23:56;;;;;;;9.33;1.60;;;14.70;99.90;;;;;;5074874;28;20515;-82
2023/10/11 04:26:33;;;;;;;3.83;1.63;;;14.60;99.90;;;;;;5074904;28;20421;-82
2023/10/11 04:29:06;;;;;;;2.20;1.53;;;14.50;99.90;;;;;;5075409;28;20429;-82
2023/10/11 04:31:46;;;;;;;1.73;1.37;;;14.50;99.90;;;;;;5074832;28;20834;-82
2023/10/11 04:34:14;;;;;;;7.50;2.57;;;14.40;99.90;;;;;;5074650;28;20582;-82
2023/10/11 04:36:42;;;;;;;2.93;2.07;;;14.30;99.90;;;;;;5074671;28;20506;-82
2023/10/11 04:39:16;;;;;;;2.47;1.27;;;14.10;99.90;;;;;;5074647;28;20433;-82
2023/10/11 04:41:49;;;;;;;7.47;1.60;;;14.10;99.90;;;;;;5074573;28;20459;-82
2023/10/11 04:44:17;;;;;;;3.00;1.73;;;14.00;99.90;;;;;;5074476;28;20465;-82
2023/10/11 04:46:55;;;;;;;2.97;1.40;;;13.90;99.90;;;;;;5074429;28;20477;-82
2023/10/11 04:49:23;;;;;;;3.20;1.50;;;13.90;99.90;;;;;;5073912;28;20909;-82
2023/10/11 04:51:51;;;;;;;6.33;1.30;;;13.80;99.90;;;;;;5074405;28;20434;-82
2023/10/11 04:54:19;;;;;;;1.57;1.10;;;13.80;99.90;;;;;;5073872;28;20488;-82
2023/10/11 04:56:56;;;;;;;3.20;1.40;;;13.70;99.90;;;;;;5073950;28;20449;-82
2023/10/11 04:59:36;;;;;;;3.50;1.93;;;13.70;99.90;;;;;;5074514;28;20421;-82
2023/10/11 05:02:08;;;;;;;3.30;1.73;;;13.70;99.90;;;;;;5074047;28;20476;-82
2023/10/11 05:04:42;;;;;;;2.73;1.60;;;13.80;99.90;;;;;;5073870;28;20903;-82
2023/10/11 05:07:09;;;;;;;8.50;1.80;;;13.70;99.90;;;;;;5074233;28;20434;-82
2023/10/11 05:09:39;;;;;;;1.50;1.30;;;13.70;99.90;;;;;;5074078;28;20445;-80
2023/10/11 05:12:12;;;;;;;3.80;1.50;;;13.70;99.90;;;;;;5073854;28;20503;-80
2023/10/11 05:14:53;;;;;;;3.00;1.23;;;13.60;99.90;;;;;;5073899;28;20488;-80
2023/10/11 05:20:23;;;;;;;1.37;1.27;;;13.60;99.90;;;;;;5073838;28;20409;-80
2023/10/11 05:22:49;;;;;;;2.00;1.40;;;13.60;99.90;;;;;;5073739;28;20468;-80
2023/10/11 05:28:07;;;;;;;4.53;0.90;;;13.50;99.90;;;;;;5073468;28;20486;-80
2023/10/11 05:30:34;;;;;;;3.70;2.00;;;13.50;99.90;;;;;;5073817;28;20499;-80
2023/10/11 05:33:15;;;;;;;2.43;1.50;;;13.50;99.90;;;;;;5072913;28;20555;-80
2023/10/11 05:36:14;;;;;;;5.70;2.30;;;13.60;99.90;;;;;;5073629;28;20498;-80
2023/10/11 05:52:25;;;;;;;10.57;1.73;;;13.90;99.90;;;;;;5073370;28;20452;-80
2023/10/11 05:54:54;;;;;;;3.03;1.17;;;14.00;99.90;;;;;;5073214;28;20563;-80
2023/10/11 05:57:24;;;;;;;1.77;1.10;;;14.00;99.90;;;;;;5073276;28;20805;-80
2023/10/11 05:59:51;;;;;;;2.20;1.00;;;14.00;99.90;;;;;;5073347;28;20430;-80
2023/10/11 06:02:19;;;;;;;3.20;1.83;;;14.20;99.90;;;;;;5073208;28;20459;-80
2023/10/11 06:04:46;;;;;;;4.17;1.63;;;14.20;99.90;;;;;;5073159;28;20447;-80
2023/10/11 06:07:15;;;;;;;1.73;0.97;;;14.20;99.90;;;;;;5072939;28;20444;-80
2023/10/11 06:09:45;;;;;;;2.87;1.87;;;14.30;99.90;;;;;;5072866;28;21003;-81
2023/10/11 06:12:23;;;;;;;5.47;2.07;;;14.40;99.90;;;;;;5073120;28;20451;-81
2023/10/11 06:14:51;;;;;;;2.20;1.60;;;14.40;99.90;;;;;;5073146;28;20473;-81
2023/10/11 06:17:21;;;;;;;2.80;1.67;;;14.40;99.90;;;;;;5072880;28;20977;-81
2023/10/11 06:19:53;;;;;;;5.83;1.93;;;14.40;99.90;;;;;;5072800;28;20470;-81
2023/10/11 06:22:21;;;;;;;1.37;0.90;;;14.40;99.90;;;;;;5073115;28;20433;-81
2023/10/11 06:24:48;;;;;;;1.40;1.00;;;14.40;99.90;;;;;;5073315;28;20444;-81
2023/10/11 06:30:06;;;;;;;4.97;1.27;;;14.50;99.90;;;;;;5073052;28;20455;-81
2023/10/11 06:32:35;;;;;;;1.37;1.27;;;14.50;99.90;;;;;;5072952;28;20468;-81
2023/10/11 06:35:05;;;;;;;2.60;1.43;;;14.60;99.90;;;;;;5072594;28;20989;-81
2023/10/11 06:37:34;;;;;;;5.33;1.30;;;14.70;99.90;;;;;;5072923;28;20425;-81
2023/10/11 06:40:13;;;;;;;2.20;1.30;;;14.70;99.90;;;;;;5072791;28;20883;-81
2023/10/11 06:42:40;;;;;;;8.83;1.23;;;14.70;99.90;;;;;;5072904;28;20468;-81
2023/10/11 06:45:16;;;;;;;5.80;1.10;;;14.80;99.90;;;;;;5074761;28;20524;-81
2023/10/11 06:47:47;;;;;;;1.73;1.10;;;14.80;99.90;;;;;;5076429;28;20996;-80
2023/10/11 06:50:14;;;;;;;2.53;1.20;;;15.00;99.90;;;;;;5076508;28;20492;-81
2023/10/11 06:52:44;;;;;;;3.10;1.33;;;15.00;99.90;;;;;;5076734;28;20468;-81
2023/10/11 06:55:18;;;;;;;3.93;1.43;;;15.10;99.90;;;;;;5076509;28;20526;-81
2023/10/11 06:57:50;;;;;;;1.80;1.07;;;15.30;99.90;;;;;;5076605;28;20471;-81
2023/10/11 07:00:23;;;;;;;3.07;1.27;;;15.20;99.90;;;;;;5076557;28;20516;-82
2023/10/11 07:02:52;;;;;;;6.73;1.43;;;15.20;99.90;;;;;;5076064;28;20992;-82
2023/10/11 07:05:20;;;;;;;5.23;1.47;;;15.20;99.90;;;;;;5076393;28;20518;-82
2023/10/11 07:07:52;;;;;;;2.17;1.60;;;15.40;99.90;;;;;;5076347;28;20448;-82
2023/10/11 07:10:29;;;;;;;1.47;1.20;;;15.30;99.90;;;;;;5076346;28;20435;-82
2023/10/11 07:13:04;;;;;;;1.47;0.90;;;15.40;99.90;;;;;;5076206;28;20491;-82
2023/10/11 07:15:43;;;;;;;4.23;1.53;;;15.70;99.90;;;;;;5076105;28;21042;-82
2023/10/11 07:18:12;;;;;;;10.40;1.20;;;15.50;99.90;;;;;;5076230;28;20433;-81
2023/10/11 07:20:58;;;;;;;2.60;1.27;;;15.60;99.90;;;;;;5076126;28;20451;-82
2023/10/11 07:23:34;;;;;;;5.30;1.20;;;15.60;99.90;;;;;;5075633;28;20472;-81
2023/10/11 07:26:23;;;;;;;3.27;0.77;;;15.70;99.90;;;;;;5076030;28;20425;-82
2023/10/11 07:28:50;;;;;;;1.63;0.90;;;15.70;99.90;;;;;;5075974;28;20429;-82
2023/10/11 07:31:19;;;;;;;5.07;2.17;;;15.70;99.90;;;;;;5075961;28;20524;-82
2023/10/11 07:33:49;;;;;;;6.27;1.30;;;15.80;99.90;;;;;;5075863;28;20480;-82
2023/10/11 07:36:19;;;;;;;3.53;1.10;;;15.90;99.90;;;;;;5075968;28;20437;-82
2023/10/11 07:38:54;;;;;;;3.33;1.33;;;15.90;99.90;;;;;;5076183;28;20425;-81
2023/10/11 07:41:24;;;;;;;1.33;1.10;;;16.00;99.90;;;;;;5075737;28;20443;-81
2023/10/11 07:43:51;;;;;;;0.97;0.97;;;16.00;99.90;;;;;;5075612;28;20471;-81
2023/10/11 07:46:20;;;;;;;4.33;1.20;;;16.10;99.90;;;;;;5076546;28;20479;-81
2023/10/11 07:48:46;;;;;;;2.57;1.23;;;16.20;99.90;;;;;;5075596;28;20452;-81
2023/10/11 07:51:13;;;;;;;9.50;1.93;;;16.30;99.90;;;;;;5075368;28;20477;-82
2023/10/11 07:53:41;;;;;;;6.50;2.30;;;16.40;99.90;;;;;;5075492;28;20842;-81
2023/10/11 07:56:09;;;;;;;1.13;0.87;;;16.40;99.90;;;;;;5074779;28;20843;-81
2023/10/11 07:58:35;;;;;;;2.73;1.60;;;16.50;99.90;;;;;;5075461;28;20448;-82
2023/10/11 08:01:15;;;;;;;3.07;1.13;;;16.70;99.90;;;;;;5075321;28;20440;-81
2023/10/11 08:03:44;;;;;;;2.30;1.37;;;16.80;99.90;;;;;;5075325;28;20526;-82
2023/10/11 08:06:12;;;;;;;3.10;1.23;;;17.00;99.90;;;;;;5075314;28;20445;-81
2023/10/11 08:08:39;;;;;;;3.07;1.00;;;17.20;99.90;;;;;;5075272;28;20535;-81
2023/10/11 08:11:18;;;;;;;1.80;1.27;;;17.30;99.90;;;;;;5075203;28;20449;-81
2023/10/11 08:13:47;;;;;;;5.67;0.97;;;17.50;99.90;;;;;;5075163;28;20465;-81
2023/10/11 08:16:17;;;;;;;2.03;1.17;;;17.70;99.90;;;;;;5074746;28;20476;-82
2023/10/11 08:18:48;;;;;;;1.50;0.90;;;17.90;99.90;;;;;;5075242;28;20433;-82
2023/10/11 08:21:15;;;;;;;16.90;2.40;;;18.00;99.90;;;;;;5075109;28;20487;-81
2023/10/11 08:23:44;;;;;;;2.30;1.20;;;18.20;99.90;;;;;;5074925;28;20464;-81
2023/10/11 08:26:15;;;;;;;1.33;1.07;;;18.30;99.90;;;;;;5074882;28;20451;-82
2023/10/11 08:28:48;;;;;;;3.37;1.23;;;18.50;99.90;;;;;;5074902;28;20433;-81
2023/10/11 08:31:26;;;;;;;6.27;1.40;;;18.60;99.90;;;;;;5074846;28;20846;-82
2023/10/11 08:33:54;;;;;;;1.27;0.90;;;18.80;99.90;;;;;;5074408;28;20980;-82
2023/10/11 08:36:21;;;;;;;3.63;1.20;;;19.00;99.90;;;;;;5074222;28;20477;-82
2023/10/11 08:38:48;;;;;;;1.53;1.43;;;19.20;99.90;;;;;;5074677;28;20440;-82
2023/10/11 08:41:18;;;;;;;2.80;1.30;;;19.40;99.90;;;;;;5074567;28;20445;-82
2023/10/11 08:43:48;;;;;;;2.93;1.27;;;19.60;99.90;;;;;;5074440;28;21019;-83
2023/10/11 08:46:18;;;;;;;3.90;1.33;;;19.80;99.90;;;;;;5074246;28;20524;-82
2023/10/11 08:48:50;;;;;;;8.87;1.10;;;20.10;99.90;;;;;;5074431;28;20441;-83
2023/10/11 08:51:22;;;;;;;2.63;0.90;;;20.50;99.90;;;;;;5074168;28;20579;-82
2023/10/11 08:53:54;;;;;;;2.33;1.00;;;21.10;99.90;;;;;;5074347;28;20555;-82
2023/10/11 08:56:23;;;;;;;3.37;1.77;;;21.70;99.90;;;;;;5074267;28;20464;-82
2023/10/11 08:58:51;;;;;;;5.07;1.40;;;22.60;99.90;;;;;;5074355;28;20455;-82
2023/10/11 09:01:18;;;;;;;10.27;1.67;;;23.50;99.90;;;;;;5074213;28;20448;-82
2023/10/11 09:04:03;;;;;;;7.00;1.40;;;24.40;99.90;;;;;;5074151;28;20456;-82
2023/10/11 09:06:33;;;;;;;2.80;1.10;;;25.00;99.90;;;;;;5074151;28;20516;-82
2023/10/11 09:09:01;;;;;;;1.38;1.27;;;25.20;98.80;;;;;;5073682;28;20201;-83
2023/10/11 09:11:29;;;;;;;6.30;1.50;;;25.50;98.10;;;;;;5074035;28;20201;-83
2023/10/11 09:14:11;;;;;;;13.00;1.30;;;25.60;97.90;;;;;;5074472;28;20230;-82
2023/10/11 09:16:37;;;;;;;2.35;1.13;;;25.60;96.90;;;;;;5073676;28;20182;-83
2023/10/11 09:19:06;;;;;;;3.72;1.30;;;25.80;96.20;;;;;;5073948;28;20577;-83
2023/10/11 09:21:36;;;;;;;1.40;1.00;;;26.40;95.10;;;;;;5073835;28;20206;-83
2023/10/11 09:24:03;;;;;;;3.70;1.23;;;26.90;94.00;;;;;;5073760;28;20299;-83
2023/10/11 09:26:34;;;;;;;3.13;1.50;;;27.70;93.30;;;;;;5073716;28;20198;-81
2023/10/11 09:29:03;;;;;;;2.95;1.10;;;28.10;92.50;;;;;;5073397;28;20640;-82
2023/10/11 09:31:31;;;;;;;1.08;0.98;;;28.70;91.80;;;;;;5073681;28;20207;-82
2023/10/11 09:34:02;;;;;;;4.30;1.55;;;29.00;90.50;;;;;;5073572;28;20222;-83
2023/10/11 09:36:29;;;;;;;7.18;1.08;;;28.70;87.70;;;;;;5073251;28;20216;-83
2023/10/11 09:38:59;;;;;;;4.25;1.20;;;28.70;87.30;;;;;;5073579;28;20235;-83
2023/10/11 09:41:28;;;;;;;1.02;0.90;;;28.80;87.30;;;;;;5073540;28;20212;-83
2023/10/11 09:43:57;;;;;;;1.85;1.42;;;28.60;86.90;;;;;;5073445;28;20287;-82
2023/10/11 09:46:29;;;;;;;1.80;1.00;;;28.50;87.00;;;;;;5073446;28;20197;-83
2023/10/11 09:48:56;;;;;;;3.30;1.23;;;28.40;86.50;;;;;;5073226;28;20238;-82
2023/10/11 09:51:25;;;;;;;0.80;0.80;;;28.30;86.90;;;;;;5073059;28;20604;-82
2023/10/11 09:53:53;;;;;;;4.28;1.30;;;28.20;87.50;;;;;;5073181;28;20707;-83
2023/10/11 09:56:37;;;;;;;2.95;1.38;;;28.00;87.70;;;;;;5073261;28;20257;-82
2023/10/11 09:59:22;;;;;;;1.50;1.27;;;27.50;87.50;;;;;;5073068;28;20198;-82
2023/10/11 10:01:56;;;;;;;6.95;1.27;;;27.40;88.50;;;;;;5073363;28;20183;-82
2023/10/11 10:04:57;;;;;;;5.28;1.27;;;27.10;88.50;;;;;;5073286;28;20359;-82
2023/10/11 10:07:26;;;;;;;2.53;1.83;;;26.90;88.60;;;;;;5073252;28;20236;-82
2023/10/11 10:09:54;;;;;;;1.40;1.30;;;26.70;88.30;;;;;;5072976;28;20619;-82
2023/10/11 10:12:25;;;;;;;1.30;1.20;;;26.50;89.40;;;;;;5073204;28;20193;-82
2023/10/11 10:15:03;;;;;;;2.72;1.13;;;26.50;90.00;;;;;;5073156;28;20634;-82
2023/10/11 10:17:30;;;;;;;4.13;1.17;;;26.60;90.70;;;;;;5073211;28;20201;-82
2023/10/11 10:20:00;;;;;;;1.65;1.27;;;26.60;90.00;;;;;;5074845;28;20202;-82
2023/10/11 10:22:31;;;;;;;1.10;1.00;;;26.70;90.40;;;;;;5076930;28;20702;-82
2023/10/11 10:25:19;;;;;;;1.45;0.98;;;26.80;89.50;;;;;;5077511;28;20182;-82
2023/10/11 10:27:52;;;;;;;3.60;1.55;;;27.20;89.30;;;;;;5077116;28;20198;-82
2023/10/11 10:30:21;;;;;;;2.30;1.48;;;27.90;87.50;;;;;;5077100;28;20194;-82
2023/10/11 10:33:19;;;;;;;3.83;1.40;;;28.50;83.50;;;;;;5077045;28;20222;-82
2023/10/11 10:35:48;;;;;;;2.95;1.05;;;29.80;81.90;;;;;;5076910;28;20633;-82
2023/10/11 10:38:15;;;;;;;1.85;1.30;;;30.90;79.50;;;;;;5076988;28;20208;-82
2023/10/11 10:40:42;;;;;;;1.73;1.58;;;31.20;78.50;;;;;;5076898;28;20201;-82
2023/10/11 10:43:23;;;;;;;3.40;1.48;;;31.10;78.30;;;;;;5076789;28;20221;-82
2023/10/11 10:45:51;;;;;;;3.55;1.20;;;30.40;77.00;;;;;;5076557;28;20547;-82
2023/10/11 10:48:19;;;;;;;2.38;1.13;;;29.40;77.80;;;;;;5076788;28;20302;-82
2023/10/11 10:50:50;;;;;;;2.08;1.23;;;28.70;79.40;;;;;;5076624;28;20317;-82
2023/10/11 10:53:17;;;;;;;2.25;1.05;;;28.20;80.80;;;;;;5076438;28;20226;-82
2023/10/11 10:55:44;;;;;;;3.55;1.30;;;27.50;81.40;;;;;;5076549;28;20225;-82
2023/10/11 10:58:19;;;;;;;1.77;1.50;;;26.90;82.40;;;;;;5076252;28;20693;-82
2023/10/11 11:00:47;;;;;;;2.97;1.17;;;26.50;84.90;;;;;;5076545;28;20197;-82
2023/10/11 11:03:22;;;;;;;3.63;1.17;;;26.30;85.10;;;;;;5076463;28;20253;-82
2023/10/11 11:05:55;;;;;;;2.92;1.20;;;26.00;85.30;;;;;;5076144;28;20662;-82
2023/10/11 11:08:27;;;;;;;2.00;1.42;;;25.80;85.30;;;;;;5076341;28;20268;-82
2023/10/11 11:10:56;;;;;;;1.17;1.05;;;25.80;87.90;;;;;;5076087;28;20186;-82
2023/10/11 11:13:28;;;;;;;1.40;1.23;;;25.80;88.30;;;;;;5076486;28;20214;-82
2023/10/11 11:15:55;;;;;;;2.50;1.42;;;25.70;88.90;;;;;;5076427;28;20609;-81
2023/10/11 11:18:32;;;;;;;2.58;1.48;;;25.50;88.40;;;;;;5076307;28;20229;-81
2023/10/11 11:21:03;;;;;;;1.35;1.00;;;25.50;88.20;;;;;;5076169;28;20206;-81
2023/10/11 11:23:33;;;;;;;1.10;1.00;;;25.50;86.80;;;;;;5076141;28;20225;-81
2023/10/11 11:26:04;;;;;;;2.03;1.10;;;25.40;87.50;;;;;;5076050;28;20202;-82
2023/10/11 11:28:39;;;;;;;1.45;1.35;;;25.40;87.80;;;;;;5075766;28;20189;-82
2023/10/11 11:31:10;;;;;;;1.30;0.93;;;25.40;88.60;;;;;;5074564;28;20666;-81
2023/10/11 11:33:47;;;;;;;1.13;1.02;;;25.50;86.50;;;;;;5075922;28;20584;-82
2023/10/11 11:36:22;;;;;;;1.88;1.52;;;25.40;87.00;;;;;;5075837;28;20650;-82
2023/10/11 11:38:49;;;;;;;2.65;0.73;;;25.40;85.80;;;;;;5075580;28;20628;-82
2023/10/11 11:41:17;;;;;;;1.60;1.02;;;25.20;86.20;;;;;;5075791;28;20206;-81
2023/10/11 11:43:47;;;;;;;2.78;0.80;;;25.40;85.80;;;;;;5075733;28;20252;-81
2023/10/11 11:46:15;;;;;;;2.33;1.10;;;25.20;85.90;;;;;;5075830;28;20557;-82
2023/10/11 11:48:42;;;;;;;8.40;1.60;;;25.20;86.60;;;;;;5075661;28;20193;-82
2023/10/11 11:51:13;;;;;;;0.80;0.80;;;25.20;86.30;;;;;;5075098;28;20226;-80
2023/10/11 11:53:43;;;;;;;1.98;0.98;;;25.10;84.10;;;;;;5076354;28;20283;-82
2023/10/11 11:56:11;;;;;;;1.20;1.10;;;25.00;83.20;;;;;;5075170;28;20633;-82
2023/10/11 11:58:42;;;;;;;1.35;1.20;;;24.90;84.20;;;;;;5075518;28;20210;-82
2023/10/11 12:01:15;;;;;;;1.15;0.95;;;24.80;84.30;;;;;;5075303;28;20670;-81
2023/10/11 12:03:42;;;;;;;3.05;1.00;;;24.80;84.30;;;;;;5075073;28;20237;-81
2023/10/11 12:06:21;;;;;;;1.30;0.88;;;24.80;85.60;;;;;;5075037;28;20742;-81
2023/10/11 12:08:48;;;;;;;1.88;0.80;;;24.80;86.20;;;;;;5075295;28;20189;-81
2023/10/11 12:11:15;;;;;;;3.28;1.17;;;24.70;88.00;;;;;;5075249;28;20213;-82
2023/10/11 12:13:42;;;;;;;1.20;0.85;;;24.70;87.30;;;;;;5075146;28;20221;-82
2023/10/11 12:16:10;;;;;;;7.30;1.02;;;24.70;86.00;;;;;;5075089;28;20225;-82
2023/10/11 12:18:44;;;;;;;0.93;0.90;;;24.50;86.00;;;;;;5075146;28;20209;-82
2023/10/11 12:21:26;;;;;;;1.00;0.90;;;24.50;85.50;;;;;;5074799;28;20624;-82
2023/10/11 12:24:12;;;;;;;2.83;0.90;;;24.40;86.70;;;;;;5074978;28;20236;-83
2023/10/11 12:26:55;;;;;;;4.93;1.33;;;24.40;84.40;;;;;;5074759;28;20742;-81
2023/10/11 12:29:26;;;;;;;1.52;0.80;;;24.30;84.60;;;;;;5074689;28;20581;-82
2023/10/11 12:31:53;;;;;;;1.35;0.80;;;24.30;83.40;;;;;;5074803;28;20550;-82
2023/10/11 12:34:24;;;;;;;1.77;0.95;;;24.10;84.00;;;;;;5074474;28;20222;-81
2023/10/11 12:36:57;;;;;;;0.88;0.82;;;24.10;83.40;;;;;;5074757;28;20272;-82
2023/10/11 12:39:29;;;;;;;2.75;1.30;;;24.10;82.00;;;;;;5074412;28;20571;-82
2023/10/11 12:41:59;;;;;;;3.05;0.80;;;24.00;83.40;;;;;;5074506;28;20563;-83
2023/10/11 12:44:40;;;;;;;2.00;1.10;;;24.00;84.70;;;;;;5074370;28;20217;-82
2023/10/11 12:47:24;;;;;;;0.85;0.80;;;25.00;85.10;;;;;;5074265;28;20189;-82
2023/10/11 12:50:04;;;;;;;2.45;1.00;;;24.00;83.20;;;;;;5073775;28;20233;-83
2023/10/11 12:52:37;;;;;;;0.85;0.73;;;24.00;83.90;;;;;;5074246;28;20233;-82
2023/10/11 12:55:07;;;;;;;0.70;0.70;;;23.90;85.10;;;;;;5074075;28;20208;-81
2023/10/11 12:57:38;;;;;;;4.07;1.05;;;23.90;84.50;;;;;;5074497;28;20267;-82
2023/10/11 13:00:15;;;;;;;3.90;1.00;;;23.80;84.70;;;;;;5074284;28;20204;-82
2023/10/11 13:02:51;;;;;;;2.08;1.15;;;23.80;84.60;;;;;;5074143;28;20222;-82
2023/10/11 13:05:20;;;;;;;4.75;1.13;;;23.80;85.90;;;;;;5073993;28;20209;-82
2023/10/11 13:07:59;;;;;;;2.20;1.38;;;23.80;85.70;;;;;;5073848;28;20671;-82
2023/10/11 13:10:26;;;;;;;1.20;1.10;;;23.80;87.40;;;;;;5074111;28;20269;-82
2023/10/11 13:12:54;;;;;;;1.57;0.90;;;23.70;87.00;;;;;;5073613;28;20226;-82
2023/10/11 13:15:22;;;;;;;1.85;0.88;;;24.10;88.40;;;;;;5073837;28;20289;-83
2023/10/11 13:17:49;;;;;;;1.90;1.15;;;23.70;89.30;;;;;;5074106;28;20200;-85
2023/10/11 13:20:19;;;;;;;1.38;1.17;;;23.60;88.50;;;;;;5074121;28;20197;-83
2023/10/11 13:22:48;;;;;;;8.13;1.35;;;23.60;87.20;;;;;;5074110;28;20257;-85
2023/10/11 13:25:23;;;;;;;1.92;1.58;;;23.60;87.40;;;;;;5073939;28;20213;-85
2023/10/11 13:27:54;;;;;;;1.92;1.00;;;23.60;87.10;;;;;;5073871;28;20213;-85